sensor_id;sensor_type;location;lat;lon;timestamp;temperature;humidity
70051;SHT30;57391;51.306;22.680;2024-03-02T00:00:44;7.24;81.70
70051;SHT30;57391;51.306;22.680;2024-03-02T00:03:10;7.24;81.69
70051;SHT30;57391;51.306;22.680;2024-03-02T00:05:19;7.23;81.69
70051;SHT30;57391;51.306;22.680;2024-03-02T00:07:24;7.24;81.66
70051;SHT30;57391;51.306;22.680;2024-03-02T00:09:26;7.23;81.70
70051;SHT30;57391;51.306;22.680;2024-03-02T00:11:28;7.21;81.72
70051;SHT30;57391;51.306;22.680;2024-03-02T00:13:31;7.20;81.81
70051;SHT30;57391;51.306;22.680;2024-03-02T00:15:39;7.21;81.84
70051;SHT30;57391;51.306;22.680;2024-03-02T00:17:46;7.19;81.89
70051;SHT30;57391;51.306;22.680;2024-03-02T00:19:55;7.19;81.90
70051;SHT30;57391;51.306;22.680;2024-03-02T00:22:00;7.19;81.90
70051;SHT30;57391;51.306;22.680;2024-03-02T00:24:07;7.20;81.91
70051;SHT30;57391;51.306;22.680;2024-03-02T00:26:23;7.20;82.00
70051;SHT30;57391;51.306;22.680;2024-03-02T00:28:27;7.19;82.01
70051;SHT30;57391;51.306;22.680;2024-03-02T00:33:09;7.20;82.03
70051;SHT30;57391;51.306;22.680;2024-03-02T00:35:12;7.19;82.05
70051;SHT30;57391;51.306;22.680;2024-03-02T00:37:15;7.18;82.09
70051;SHT30;57391;51.306;22.680;2024-03-02T00:39:17;7.18;82.11
70051;SHT30;57391;51.306;22.680;2024-03-02T00:43:41;7.17;82.14
70051;SHT30;57391;51.306;22.680;2024-03-02T00:45:49;7.18;82.13
70051;SHT30;57391;51.306;22.680;2024-03-02T00:47:51;7.15;82.19
70051;SHT30;57391;51.306;22.680;2024-03-02T00:49:54;7.15;82.21
70051;SHT30;57391;51.306;22.680;2024-03-02T00:51:57;7.14;82.21
70051;SHT30;57391;51.306;22.680;2024-03-02T00:54:00;7.12;82.31
70051;SHT30;57391;51.306;22.680;2024-03-02T00:56:05;7.12;82.38
70051;SHT30;57391;51.306;22.680;2024-03-02T00:58:13;7.12;82.41
70051;SHT30;57391;51.306;22.680;2024-03-02T01:00:15;7.10;82.49
70051;SHT30;57391;51.306;22.680;2024-03-02T01:02:19;7.12;82.50
70051;SHT30;57391;51.306;22.680;2024-03-02T01:04:21;7.11;82.47
70051;SHT30;57391;51.306;22.680;2024-03-02T01:06:24;7.11;82.50
70051;SHT30;57391;51.306;22.680;2024-03-02T01:08:26;7.07;82.64
70051;SHT30;57391;51.306;22.680;2024-03-02T01:10:28;7.07;82.70
70051;SHT30;57391;51.306;22.680;2024-03-02T01:12:31;7.05;82.72
70051;SHT30;57391;51.306;22.680;2024-03-02T01:14:33;7.04;82.80
70051;SHT30;57391;51.306;22.680;2024-03-02T01:16:36;7.05;82.81
70051;SHT30;57391;51.306;22.680;2024-03-02T01:18:38;7.05;82.81
70051;SHT30;57391;51.306;22.680;2024-03-02T01:20:40;7.06;82.81
70051;SHT30;57391;51.306;22.680;2024-03-02T01:22:42;7.04;82.81
70051;SHT30;57391;51.306;22.680;2024-03-02T01:24:45;7.03;82.88
70051;SHT30;57391;51.306;22.680;2024-03-02T01:26:47;7.01;83.00
70051;SHT30;57391;51.306;22.680;2024-03-02T01:28:49;6.98;83.06
70051;SHT30;57391;51.306;22.680;2024-03-02T01:30:52;6.97;83.13
70051;SHT30;57391;51.306;22.680;2024-03-02T01:32:54;6.96;83.21
70051;SHT30;57391;51.306;22.680;2024-03-02T01:34:56;6.95;83.20
70051;SHT30;57391;51.306;22.680;2024-03-02T01:36:59;6.95;83.20
70051;SHT30;57391;51.306;22.680;2024-03-02T01:39:01;6.96;83.22
70051;SHT30;57391;51.306;22.680;2024-03-02T01:41:03;6.95;83.20
70051;SHT30;57391;51.306;22.680;2024-03-02T01:43:06;6.95;83.26
70051;SHT30;57391;51.306;22.680;2024-03-02T01:45:09;6.95;83.25
70051;SHT30;57391;51.306;22.680;2024-03-02T01:47:11;6.97;83.20
70051;SHT30;57391;51.306;22.680;2024-03-02T01:49:13;6.97;83.20
70051;SHT30;57391;51.306;22.680;2024-03-02T01:51:15;6.98;83.16
70051;SHT30;57391;51.306;22.680;2024-03-02T01:53:17;6.98;83.20
70051;SHT30;57391;51.306;22.680;2024-03-02T01:55:20;7.01;83.11
70051;SHT30;57391;51.306;22.680;2024-03-02T01:57:22;7.02;83.10
70051;SHT30;57391;51.306;22.680;2024-03-02T01:59:24;7.02;83.09
70051;SHT30;57391;51.306;22.680;2024-03-02T02:01:27;7.02;83.05
70051;SHT30;57391;51.306;22.680;2024-03-02T02:03:28;7.02;83.03
70051;SHT30;57391;51.306;22.680;2024-03-02T02:05:31;7.04;83.05
70051;SHT30;57391;51.306;22.680;2024-03-02T02:07:33;7.04;83.01
70051;SHT30;57391;51.306;22.680;2024-03-02T02:09:37;7.04;82.96
70051;SHT30;57391;51.306;22.680;2024-03-02T02:11:39;7.03;83.01
70051;SHT30;57391;51.306;22.680;2024-03-02T02:13:41;7.03;83.03
70051;SHT30;57391;51.306;22.680;2024-03-02T02:15:44;7.04;83.09
70051;SHT30;57391;51.306;22.680;2024-03-02T02:17:46;7.04;83.04
70051;SHT30;57391;51.306;22.680;2024-03-02T02:19:49;7.03;83.03
70051;SHT30;57391;51.306;22.680;2024-03-02T02:21:51;7.03;83.06
70051;SHT30;57391;51.306;22.680;2024-03-02T02:23:53;7.02;83.04
70051;SHT30;57391;51.306;22.680;2024-03-02T02:25:56;6.98;83.07
70051;SHT30;57391;51.306;22.680;2024-03-02T02:27:58;6.97;83.15
70051;SHT30;57391;51.306;22.680;2024-03-02T02:30:00;6.97;83.15
70051;SHT30;57391;51.306;22.680;2024-03-02T02:32:04;6.98;83.19
70051;SHT30;57391;51.306;22.680;2024-03-02T02:34:07;6.97;83.20
70051;SHT30;57391;51.306;22.680;2024-03-02T02:36:10;6.99;83.21
70051;SHT30;57391;51.306;22.680;2024-03-02T02:38:12;6.97;83.19
70051;SHT30;57391;51.306;22.680;2024-03-02T02:40:14;6.94;83.22
70051;SHT30;57391;51.306;22.680;2024-03-02T02:42:23;6.93;83.30
70051;SHT30;57391;51.306;22.680;2024-03-02T02:44:26;6.94;83.30
70051;SHT30;57391;51.306;22.680;2024-03-02T02:46:28;6.93;83.30
70051;SHT30;57391;51.306;22.680;2024-03-02T02:48:30;6.96;83.30
70051;SHT30;57391;51.306;22.680;2024-03-02T02:50:33;6.97;83.19
70051;SHT30;57391;51.306;22.680;2024-03-02T02:52:36;6.98;83.19
70051;SHT30;57391;51.306;22.680;2024-03-02T02:54:41;6.99;83.11
70051;SHT30;57391;51.306;22.680;2024-03-02T02:56:43;6.99;83.10
70051;SHT30;57391;51.306;22.680;2024-03-02T02:58:46;7.00;83.13
70051;SHT30;57391;51.306;22.680;2024-03-02T03:00:48;7.01;83.10
70051;SHT30;57391;51.306;22.680;2024-03-02T03:02:50;7.01;83.07
70051;SHT30;57391;51.306;22.680;2024-03-02T03:04:53;7.01;83.09
70051;SHT30;57391;51.306;22.680;2024-03-02T03:06:55;7.02;83.06
70051;SHT30;57391;51.306;22.680;2024-03-02T03:08:57;7.03;83.03
70051;SHT30;57391;51.306;22.680;2024-03-02T03:11:00;7.02;83.09
70051;SHT30;57391;51.306;22.680;2024-03-02T03:13:02;7.02;83.10
70051;SHT30;57391;51.306;22.680;2024-03-02T03:15:04;7.01;83.10
70051;SHT30;57391;51.306;22.680;2024-03-02T03:17:08;7.01;83.11
70051;SHT30;57391;51.306;22.680;2024-03-02T03:19:10;6.99;83.13
70051;SHT30;57391;51.306;22.680;2024-03-02T03:21:11;6.99;83.20
70051;SHT30;57391;51.306;22.680;2024-03-02T03:23:14;7.00;83.22
70051;SHT30;57391;51.306;22.680;2024-03-02T03:25:17;7.01;83.19
70051;SHT30;57391;51.306;22.680;2024-03-02T03:27:19;7.01;83.19
70051;SHT30;57391;51.306;22.680;2024-03-02T03:29:21;7.02;83.20
70051;SHT30;57391;51.306;22.680;2024-03-02T03:31:23;7.03;83.15
70051;SHT30;57391;51.306;22.680;2024-03-02T03:33:25;7.02;83.14
70051;SHT30;57391;51.306;22.680;2024-03-02T03:35:27;7.02;83.15
70051;SHT30;57391;51.306;22.680;2024-03-02T03:37:29;7.02;83.20
70051;SHT30;57391;51.306;22.680;2024-03-02T03:39:34;6.99;83.30
70051;SHT30;57391;51.306;22.680;2024-03-02T03:41:42;6.95;83.39
70051;SHT30;57391;51.306;22.680;2024-03-02T03:43:44;6.95;83.41
70051;SHT30;57391;51.306;22.680;2024-03-02T03:45:46;6.96;83.47
70051;SHT30;57391;51.306;22.680;2024-03-02T03:47:48;6.95;83.50
70051;SHT30;57391;51.306;22.680;2024-03-02T03:49:51;6.94;83.56
70051;SHT30;57391;51.306;22.680;2024-03-02T03:51:53;6.93;83.61
70051;SHT30;57391;51.306;22.680;2024-03-02T03:53:55;6.92;83.66
70051;SHT30;57391;51.306;22.680;2024-03-02T03:55:58;6.93;83.69
70051;SHT30;57391;51.306;22.680;2024-03-02T03:57:59;6.93;83.69
70051;SHT30;57391;51.306;22.680;2024-03-02T04:00:02;6.91;83.72
70051;SHT30;57391;51.306;22.680;2024-03-02T04:02:05;6.88;83.84
70051;SHT30;57391;51.306;22.680;2024-03-02T04:04:08;6.85;83.95
70051;SHT30;57391;51.306;22.680;2024-03-02T04:06:10;6.85;83.97
70051;SHT30;57391;51.306;22.680;2024-03-02T04:08:12;6.87;83.95
70051;SHT30;57391;51.306;22.680;2024-03-02T04:10:14;6.87;83.94
70051;SHT30;57391;51.306;22.680;2024-03-02T04:12:18;6.85;84.00
70051;SHT30;57391;51.306;22.680;2024-03-02T04:14:20;6.85;84.09
70051;SHT30;57391;51.306;22.680;2024-03-02T04:16:22;6.88;84.01
70051;SHT30;57391;51.306;22.680;2024-03-02T04:18:24;6.90;83.99
70051;SHT30;57391;51.306;22.680;2024-03-02T04:20:29;6.88;84.01
70051;SHT30;57391;51.306;22.680;2024-03-02T04:22:32;6.86;84.10
70051;SHT30;57391;51.306;22.680;2024-03-02T04:24:36;6.87;84.11
70051;SHT30;57391;51.306;22.680;2024-03-02T04:26:38;6.86;84.13
70051;SHT30;57391;51.306;22.680;2024-03-02T04:28:40;6.86;84.15
70051;SHT30;57391;51.306;22.680;2024-03-02T04:30:42;6.86;84.20
70051;SHT30;57391;51.306;22.680;2024-03-02T04:32:44;6.84;84.24
70051;SHT30;57391;51.306;22.680;2024-03-02T04:34:50;6.83;84.32
70051;SHT30;57391;51.306;22.680;2024-03-02T04:36:52;6.83;84.40
70051;SHT30;57391;51.306;22.680;2024-03-02T04:38:54;6.82;84.43
70051;SHT30;57391;51.306;22.680;2024-03-02T04:40:56;6.81;84.44
70051;SHT30;57391;51.306;22.680;2024-03-02T04:42:58;6.82;84.44
70051;SHT30;57391;51.306;22.680;2024-03-02T04:45:01;6.82;84.41
70051;SHT30;57391;51.306;22.680;2024-03-02T04:47:03;6.81;84.45
70051;SHT30;57391;51.306;22.680;2024-03-02T04:49:06;6.80;84.53
70051;SHT30;57391;51.306;22.680;2024-03-02T04:51:08;6.80;84.55
70051;SHT30;57391;51.306;22.680;2024-03-02T04:53:10;6.81;84.57
70051;SHT30;57391;51.306;22.680;2024-03-02T04:55:12;6.82;84.55
70051;SHT30;57391;51.306;22.680;2024-03-02T04:57:17;6.82;84.56
70051;SHT30;57391;51.306;22.680;2024-03-02T04:59:19;6.81;84.54
70051;SHT30;57391;51.306;22.680;2024-03-02T05:01:21;6.83;84.49
70051;SHT30;57391;51.306;22.680;2024-03-02T05:03:23;6.83;84.49
70051;SHT30;57391;51.306;22.680;2024-03-02T05:05:26;6.82;84.45
70051;SHT30;57391;51.306;22.680;2024-03-02T05:07:28;6.85;84.44
70051;SHT30;57391;51.306;22.680;2024-03-02T05:09:30;6.86;84.44
70051;SHT30;57391;51.306;22.680;2024-03-02T05:11:33;6.86;84.39
70051;SHT30;57391;51.306;22.680;2024-03-02T05:13:38;6.90;84.31
70051;SHT30;57391;51.306;22.680;2024-03-02T05:15:40;6.90;84.21
70051;SHT30;57391;51.306;22.680;2024-03-02T05:17:42;6.90;84.13
70051;SHT30;57391;51.306;22.680;2024-03-02T05:19:44;6.91;84.11
70051;SHT30;57391;51.306;22.680;2024-03-02T05:21:46;6.91;84.11
70051;SHT30;57391;51.306;22.680;2024-03-02T05:23:48;6.91;84.10
70051;SHT30;57391;51.306;22.680;2024-03-02T05:25:50;6.93;84.18
70051;SHT30;57391;51.306;22.680;2024-03-02T05:27:52;6.93;84.15
70051;SHT30;57391;51.306;22.680;2024-03-02T05:29:54;6.94;84.16
70051;SHT30;57391;51.306;22.680;2024-03-02T05:31:57;6.96;84.14
70051;SHT30;57391;51.306;22.680;2024-03-02T05:33:59;6.96;84.05
70051;SHT30;57391;51.306;22.680;2024-03-02T05:36:01;6.97;83.95
70051;SHT30;57391;51.306;22.680;2024-03-02T05:38:04;6.94;83.90
70051;SHT30;57391;51.306;22.680;2024-03-02T05:40:06;6.93;83.84
70051;SHT30;57391;51.306;22.680;2024-03-02T05:42:09;6.93;83.82
70051;SHT30;57391;51.306;22.680;2024-03-02T05:44:12;6.91;83.74
70051;SHT30;57391;51.306;22.680;2024-03-02T05:46:17;6.90;83.75
70051;SHT30;57391;51.306;22.680;2024-03-02T05:48:19;6.89;83.63
70051;SHT30;57391;51.306;22.680;2024-03-02T05:50:21;6.88;83.68
70051;SHT30;57391;51.306;22.680;2024-03-02T05:52:23;6.85;83.69
70051;SHT30;57391;51.306;22.680;2024-03-02T05:54:26;6.84;83.57
70051;SHT30;57391;51.306;22.680;2024-03-02T05:56:28;6.84;83.59
70051;SHT30;57391;51.306;22.680;2024-03-02T05:58:30;6.83;83.47
70051;SHT30;57391;51.306;22.680;2024-03-02T06:00:51;6.83;83.38
70051;SHT30;57391;51.306;22.680;2024-03-02T06:02:53;6.84;83.34
70051;SHT30;57391;51.306;22.680;2024-03-02T06:04:56;6.82;83.31
70051;SHT30;57391;51.306;22.680;2024-03-02T06:06:58;6.84;83.38
70051;SHT30;57391;51.306;22.680;2024-03-02T06:09:01;6.82;83.24
70051;SHT30;57391;51.306;22.680;2024-03-02T06:11:09;6.80;83.22
70051;SHT30;57391;51.306;22.680;2024-03-02T06:13:12;6.78;83.21
70051;SHT30;57391;51.306;22.680;2024-03-02T06:15:14;6.78;83.30
70051;SHT30;57391;51.306;22.680;2024-03-02T06:17:16;6.78;83.26
70051;SHT30;57391;51.306;22.680;2024-03-02T06:19:20;6.78;83.14
70051;SHT30;57391;51.306;22.680;2024-03-02T06:21:21;6.79;83.01
70051;SHT30;57391;51.306;22.680;2024-03-02T06:23:24;6.79;82.97
70051;SHT30;57391;51.306;22.680;2024-03-02T06:25:26;6.82;82.94
70051;SHT30;57391;51.306;22.680;2024-03-02T06:27:28;6.83;82.90
70051;SHT30;57391;51.306;22.680;2024-03-02T06:29:33;6.84;82.90
70051;SHT30;57391;51.306;22.680;2024-03-02T06:31:36;6.86;82.82
70051;SHT30;57391;51.306;22.680;2024-03-02T06:33:37;6.88;82.75
70051;SHT30;57391;51.306;22.680;2024-03-02T06:35:39;6.89;82.56
70051;SHT30;57391;51.306;22.680;2024-03-02T06:37:42;6.91;82.47
70051;SHT30;57391;51.306;22.680;2024-03-02T06:39:44;6.92;82.30
70051;SHT30;57391;51.306;22.680;2024-03-02T06:41:46;6.93;82.31
70051;SHT30;57391;51.306;22.680;2024-03-02T06:43:49;6.94;82.31
70051;SHT30;57391;51.306;22.680;2024-03-02T06:45:51;6.97;82.31
70051;SHT30;57391;51.306;22.680;2024-03-02T06:47:53;6.96;82.29
70051;SHT30;57391;51.306;22.680;2024-03-02T06:49:56;6.97;82.35
70051;SHT30;57391;51.306;22.680;2024-03-02T06:51:59;7.02;82.40
70051;SHT30;57391;51.306;22.680;2024-03-02T06:54:01;7.05;82.43
70051;SHT30;57391;51.306;22.680;2024-03-02T06:56:04;7.07;82.22
70051;SHT30;57391;51.306;22.680;2024-03-02T06:58:06;7.07;82.22
70051;SHT30;57391;51.306;22.680;2024-03-02T07:00:09;7.07;82.00
70051;SHT30;57391;51.306;22.680;2024-03-02T07:02:12;7.07;81.89
70051;SHT30;57391;51.306;22.680;2024-03-02T07:04:14;7.07;81.76
70051;SHT30;57391;51.306;22.680;2024-03-02T07:06:16;7.07;81.72
70051;SHT30;57391;51.306;22.680;2024-03-02T07:08:21;7.05;81.54
70051;SHT30;57391;51.306;22.680;2024-03-02T07:10:28;7.07;81.64
70051;SHT30;57391;51.306;22.680;2024-03-02T07:12:30;7.07;81.51
70051;SHT30;57391;51.306;22.680;2024-03-02T07:14:33;7.08;81.56
70051;SHT30;57391;51.306;22.680;2024-03-02T07:16:53;7.10;81.45
70051;SHT30;57391;51.306;22.680;2024-03-02T07:18:56;7.09;81.40
70051;SHT30;57391;51.306;22.680;2024-03-02T07:20:58;7.10;81.32
70051;SHT30;57391;51.306;22.680;2024-03-02T07:23:02;7.11;81.40
70051;SHT30;57391;51.306;22.680;2024-03-02T07:25:05;7.10;81.29
70051;SHT30;57391;51.306;22.680;2024-03-02T07:27:09;7.11;81.29
70051;SHT30;57391;51.306;22.680;2024-03-02T07:29:11;7.11;81.31
70051;SHT30;57391;51.306;22.680;2024-03-02T07:31:13;7.14;81.40
70051;SHT30;57391;51.306;22.680;2024-03-02T07:33:17;7.18;81.43
70051;SHT30;57391;51.306;22.680;2024-03-02T07:35:19;7.21;81.32
70051;SHT30;57391;51.306;22.680;2024-03-02T07:37:21;7.22;81.20
70051;SHT30;57391;51.306;22.680;2024-03-02T07:39:25;7.23;81.14
70051;SHT30;57391;51.306;22.680;2024-03-02T07:41:28;7.25;81.06
70051;SHT30;57391;51.306;22.680;2024-03-02T07:43:33;7.25;81.05
70051;SHT30;57391;51.306;22.680;2024-03-02T07:45:35;7.27;80.96
70051;SHT30;57391;51.306;22.680;2024-03-02T07:47:37;7.28;80.96
70051;SHT30;57391;51.306;22.680;2024-03-02T07:49:40;7.30;80.90
70051;SHT30;57391;51.306;22.680;2024-03-02T07:51:42;7.31;80.84
70051;SHT30;57391;51.306;22.680;2024-03-02T07:53:44;7.32;80.81
70051;SHT30;57391;51.306;22.680;2024-03-02T07:55:47;7.33;80.78
70051;SHT30;57391;51.306;22.680;2024-03-02T07:57:49;7.31;80.65
70051;SHT30;57391;51.306;22.680;2024-03-02T07:59:51;7.29;80.54
70051;SHT30;57391;51.306;22.680;2024-03-02T08:01:53;7.26;80.69
70051;SHT30;57391;51.306;22.680;2024-03-02T08:03:57;7.28;80.80
70051;SHT30;57391;51.306;22.680;2024-03-02T08:06:05;7.31;80.86
70051;SHT30;57391;51.306;22.680;2024-03-02T08:08:07;7.33;80.71
70051;SHT30;57391;51.306;22.680;2024-03-02T08:10:09;7.33;80.64
70051;SHT30;57391;51.306;22.680;2024-03-02T08:12:11;7.34;80.76
70051;SHT30;57391;51.306;22.680;2024-03-02T08:14:13;7.37;80.70
70051;SHT30;57391;51.306;22.680;2024-03-02T08:16:15;7.41;80.81
70051;SHT30;57391;51.306;22.680;2024-03-02T08:18:21;7.44;80.89
70051;SHT30;57391;51.306;22.680;2024-03-02T08:20:26;7.48;80.66
70051;SHT30;57391;51.306;22.680;2024-03-02T08:22:28;7.52;80.61
70051;SHT30;57391;51.306;22.680;2024-03-02T08:24:30;7.54;80.49
70051;SHT30;57391;51.306;22.680;2024-03-02T08:26:38;7.59;80.57
70051;SHT30;57391;51.306;22.680;2024-03-02T08:28:40;7.63;80.43
70051;SHT30;57391;51.306;22.680;2024-03-02T08:30:55;7.66;80.13
70051;SHT30;57391;51.306;22.680;2024-03-02T08:32:58;7.69;80.10
70051;SHT30;57391;51.306;22.680;2024-03-02T08:35:33;7.70;79.82
70051;SHT30;57391;51.306;22.680;2024-03-02T08:37:41;7.69;79.89
70051;SHT30;57391;51.306;22.680;2024-03-02T08:39:46;7.70;79.86
70051;SHT30;57391;51.306;22.680;2024-03-02T08:41:53;7.71;79.90
70051;SHT30;57391;51.306;22.680;2024-03-02T08:45:12;7.76;80.07
70051;SHT30;57391;51.306;22.680;2024-03-02T08:47:15;7.79;79.69
70051;SHT30;57391;51.306;22.680;2024-03-02T08:49:17;7.76;79.49
70051;SHT30;57391;51.306;22.680;2024-03-02T08:51:19;7.80;79.69
70051;SHT30;57391;51.306;22.680;2024-03-02T08:53:21;7.81;79.78
70051;SHT30;57391;51.306;22.680;2024-03-02T08:55:23;7.84;79.70
70051;SHT30;57391;51.306;22.680;2024-03-02T08:57:26;7.87;79.69
70051;SHT30;57391;51.306;22.680;2024-03-02T08:59:28;7.90;79.74
70051;SHT30;57391;51.306;22.680;2024-03-02T09:01:30;7.92;79.82
70051;SHT30;57391;51.306;22.680;2024-03-02T09:03:33;7.95;79.61
70051;SHT30;57391;51.306;22.680;2024-03-02T09:05:36;7.94;79.43
70051;SHT30;57391;51.306;22.680;2024-03-02T09:07:37;7.91;79.38
70051;SHT30;57391;51.306;22.680;2024-03-02T09:09:42;7.93;79.64
70051;SHT30;57391;51.306;22.680;2024-03-02T09:11:45;7.94;79.60
70051;SHT30;57391;51.306;22.680;2024-03-02T09:13:48;7.99;79.76
70051;SHT30;57391;51.306;22.680;2024-03-02T09:15:50;8.03;79.65
70051;SHT30;57391;51.306;22.680;2024-03-02T09:17:52;8.04;79.35
70051;SHT30;57391;51.306;22.680;2024-03-02T09:19:55;8.07;79.34
70051;SHT30;57391;51.306;22.680;2024-03-02T09:21:57;8.08;79.40
70051;SHT30;57391;51.306;22.680;2024-03-02T09:24:00;8.11;79.32
70051;SHT30;57391;51.306;22.680;2024-03-02T09:26:04;8.14;79.36
70051;SHT30;57391;51.306;22.680;2024-03-02T09:28:06;8.18;79.46
70051;SHT30;57391;51.306;22.680;2024-03-02T09:30:09;8.22;79.18
70051;SHT30;57391;51.306;22.680;2024-03-02T09:32:12;8.24;79.10
70051;SHT30;57391;51.306;22.680;2024-03-02T09:34:15;8.27;78.97
70051;SHT30;57391;51.306;22.680;2024-03-02T09:36:18;8.26;78.70
70051;SHT30;57391;51.306;22.680;2024-03-02T09:38:25;8.26;78.76
70051;SHT30;57391;51.306;22.680;2024-03-02T09:40:27;8.27;78.86
70051;SHT30;57391;51.306;22.680;2024-03-02T09:42:29;8.30;78.89
70051;SHT30;57391;51.306;22.680;2024-03-02T09:44:32;8.31;78.79
70051;SHT30;57391;51.306;22.680;2024-03-02T09:46:35;8.36;79.01
70051;SHT30;57391;51.306;22.680;2024-03-02T09:48:38;8.43;79.04
70051;SHT30;57391;51.306;22.680;2024-03-02T09:50:41;8.45;78.44
70051;SHT30;57391;51.306;22.680;2024-03-02T09:52:43;8.46;78.16
70051;SHT30;57391;51.306;22.680;2024-03-02T09:54:50;8.47;78.46
70051;SHT30;57391;51.306;22.680;2024-03-02T09:56:52;8.52;78.81
70051;SHT30;57391;51.306;22.680;2024-03-02T09:58:54;8.56;78.36
70051;SHT30;57391;51.306;22.680;2024-03-02T10:00:56;8.55;78.31
70051;SHT30;57391;51.306;22.680;2024-03-02T10:03:00;8.56;78.10
70051;SHT30;57391;51.306;22.680;2024-03-02T10:05:26;8.53;78.07
70051;SHT30;57391;51.306;22.680;2024-03-02T10:07:29;8.55;78.43
70051;SHT30;57391;51.306;22.680;2024-03-02T10:09:31;8.58;78.38
70051;SHT30;57391;51.306;22.680;2024-03-02T10:11:34;8.63;78.50
70051;SHT30;57391;51.306;22.680;2024-03-02T10:13:39;8.67;78.18
70051;SHT30;57391;51.306;22.680;2024-03-02T10:15:41;8.71;78.25
70051;SHT30;57391;51.306;22.680;2024-03-02T10:17:43;8.75;78.21
70051;SHT30;57391;51.306;22.680;2024-03-02T10:21:56;8.79;77.14
70051;SHT30;57391;51.306;22.680;2024-03-02T10:24:06;8.77;77.24
70051;SHT30;57391;51.306;22.680;2024-03-02T10:26:16;8.80;77.39
70051;SHT30;57391;51.306;22.680;2024-03-02T10:28:22;8.83;77.00
70051;SHT30;57391;51.306;22.680;2024-03-02T10:30:24;8.85;76.93
70051;SHT30;57391;51.306;22.680;2024-03-02T10:32:26;8.89;76.93
70051;SHT30;57391;51.306;22.680;2024-03-02T10:34:28;8.93;76.76
70051;SHT30;57391;51.306;22.680;2024-03-02T10:36:30;8.96;76.63
70051;SHT30;57391;51.306;22.680;2024-03-02T10:38:32;9.00;76.69
70051;SHT30;57391;51.306;22.680;2024-03-02T10:40:35;9.11;77.40
70051;SHT30;57391;51.306;22.680;2024-03-02T10:42:37;9.20;76.78
70051;SHT30;57391;51.306;22.680;2024-03-02T10:44:40;9.26;76.40
70051;SHT30;57391;51.306;22.680;2024-03-02T10:46:45;9.32;76.24
70051;SHT30;57391;51.306;22.680;2024-03-02T10:48:50;9.37;76.00
70051;SHT30;57391;51.306;22.680;2024-03-02T10:50:52;9.42;76.22
70051;SHT30;57391;51.306;22.680;2024-03-02T10:52:56;9.52;76.81
70051;SHT30;57391;51.306;22.680;2024-03-02T10:54:58;9.66;76.75
70051;SHT30;57391;51.306;22.680;2024-03-02T10:57:00;9.75;75.69
70051;SHT30;57391;51.306;22.680;2024-03-02T11:01:27;9.81;75.16
70051;SHT30;57391;51.306;22.680;2024-03-02T11:03:35;9.84;75.09
70051;SHT30;57391;51.306;22.680;2024-03-02T11:05:43;9.85;75.00
70051;SHT30;57391;51.306;22.680;2024-03-02T11:07:47;9.88;74.94
70051;SHT30;57391;51.306;22.680;2024-03-02T11:09:52;9.88;74.53
70051;SHT30;57391;51.306;22.680;2024-03-02T11:14:16;9.89;74.14
70051;SHT30;57391;51.306;22.680;2024-03-02T11:18:37;9.90;74.38
70051;SHT30;57391;51.306;22.680;2024-03-02T11:20:40;9.91;74.57
70051;SHT30;57391;51.306;22.680;2024-03-02T11:22:43;9.95;74.34
70051;SHT30;57391;51.306;22.680;2024-03-02T11:24:48;9.94;73.90
70051;SHT30;57391;51.306;22.680;2024-03-02T11:26:53;9.95;73.95
70051;SHT30;57391;51.306;22.680;2024-03-02T11:28:55;9.95;74.21
70051;SHT30;57391;51.306;22.680;2024-03-02T11:31:00;9.98;74.21
70051;SHT30;57391;51.306;22.680;2024-03-02T11:33:05;10.00;74.25
70051;SHT30;57391;51.306;22.680;2024-03-02T11:35:09;10.02;74.28
70051;SHT30;57391;51.306;22.680;2024-03-02T11:37:11;10.04;74.06
70051;SHT30;57391;51.306;22.680;2024-03-02T11:39:14;10.06;74.04
70051;SHT30;57391;51.306;22.680;2024-03-02T11:41:17;10.08;74.14
70051;SHT30;57391;51.306;22.680;2024-03-02T11:43:21;10.12;74.34
70051;SHT30;57391;51.306;22.680;2024-03-02T11:45:26;10.14;74.18
70051;SHT30;57391;51.306;22.680;2024-03-02T11:47:31;10.18;74.39
70051;SHT30;57391;51.306;22.680;2024-03-02T11:51:53;10.22;73.63
70051;SHT30;57391;51.306;22.680;2024-03-02T11:54:03;10.15;73.32
70051;SHT30;57391;51.306;22.680;2024-03-02T11:56:08;10.13;73.79
70051;SHT30;57391;51.306;22.680;2024-03-02T11:58:14;10.13;73.59
70051;SHT30;57391;51.306;22.680;2024-03-02T12:00:28;10.10;73.47
70051;SHT30;57391;51.306;22.680;2024-03-02T12:02:30;10.07;73.59
70051;SHT30;57391;51.306;22.680;2024-03-02T12:04:33;10.04;73.75
70051;SHT30;57391;51.306;22.680;2024-03-02T12:06:36;10.06;73.96
70051;SHT30;57391;51.306;22.680;2024-03-02T12:08:40;10.11;74.31
70051;SHT30;57391;51.306;22.680;2024-03-02T12:10:42;10.16;74.04
70051;SHT30;57391;51.306;22.680;2024-03-02T12:12:44;10.19;74.03
70051;SHT30;57391;51.306;22.680;2024-03-02T12:14:50;10.19;73.40
70051;SHT30;57391;51.306;22.680;2024-03-02T12:16:54;10.20;73.84
70051;SHT30;57391;51.306;22.680;2024-03-02T12:18:57;10.25;74.01
70051;SHT30;57391;51.306;22.680;2024-03-02T12:20:59;10.29;73.81
70051;SHT30;57391;51.306;22.680;2024-03-02T12:23:04;10.32;73.44
70051;SHT30;57391;51.306;22.680;2024-03-02T12:25:07;10.33;73.25
70051;SHT30;57391;51.306;22.680;2024-03-02T12:27:10;10.34;73.28
70051;SHT30;57391;51.306;22.680;2024-03-02T12:29:18;10.35;73.18
70051;SHT30;57391;51.306;22.680;2024-03-02T12:31:25;10.35;73.00
70051;SHT30;57391;51.306;22.680;2024-03-02T12:33:27;10.35;73.03
70051;SHT30;57391;51.306;22.680;2024-03-02T12:35:30;10.34;72.89
70051;SHT30;57391;51.306;22.680;2024-03-02T12:37:33;10.32;72.86
70051;SHT30;57391;51.306;22.680;2024-03-02T12:39:35;10.33;73.13
70051;SHT30;57391;51.306;22.680;2024-03-02T12:41:37;10.34;73.24
70051;SHT30;57391;51.306;22.680;2024-03-02T12:43:39;10.35;73.38
70051;SHT30;57391;51.306;22.680;2024-03-02T12:45:43;10.37;73.18
70051;SHT30;57391;51.306;22.680;2024-03-02T12:47:45;10.37;73.19
70051;SHT30;57391;51.306;22.680;2024-03-02T12:49:47;10.35;73.00
70051;SHT30;57391;51.306;22.680;2024-03-02T12:51:52;10.37;73.51
70051;SHT30;57391;51.306;22.680;2024-03-02T12:53:56;10.39;73.50
70051;SHT30;57391;51.306;22.680;2024-03-02T12:55:59;10.42;73.64
70051;SHT30;57391;51.306;22.680;2024-03-02T12:58:02;10.46;73.32
70051;SHT30;57391;51.306;22.680;2024-03-02T13:00:05;10.46;73.28
70051;SHT30;57391;51.306;22.680;2024-03-02T13:02:16;10.47;73.24
70051;SHT30;57391;51.306;22.680;2024-03-02T13:04:26;10.48;73.75
70051;SHT30;57391;51.306;22.680;2024-03-02T13:06:32;10.54;73.43
70051;SHT30;57391;51.306;22.680;2024-03-02T13:08:35;10.56;73.64
70051;SHT30;57391;51.306;22.680;2024-03-02T13:10:38;10.60;73.54
70051;SHT30;57391;51.306;22.680;2024-03-02T13:12:54;10.62;72.99
70051;SHT30;57391;51.306;22.680;2024-03-02T13:14:59;10.61;72.85
70051;SHT30;57391;51.306;22.680;2024-03-02T13:17:01;10.61;73.05